Hlavní strana
METAR-TAF:

METAR-TAF

Letiště :

Perry-Foley Airport

Perry, Florida, Spojené státy americké

zeměpisná šířka: 30-04-19N, zeměpisná délka: 083-34-25W, výška: 13 m

Aktuální stav počasí

Zpráva byla vytvořena před 27 minutami, v 17:15 UTC
Severní vítr 7 kt
Teplota 12°C
Vlhkost vzduchu 94%
Tlak 1016 hPa
Viditelnost: 16.1 km
Zataženo ve výšce 500 ft

METAR: K40J 151715Z AUTO 35007KT 10SM OVC005 12/11 A3001 RMK AO2 T01150109

Čas: 12:42 (17:42 UTC)


TAF: chybějící

Stav a předpovědi počasí z více než 4 000 letišť (zprávy METAR a TAF).

Červené a žluté tečky na mapě představují dostupné meteorologické stanice.

Když kurzor umístíte na tečku, zobrazí se název stanice.

Pak kliknutím zobrazíte stav a předpověď počasí.

Chcete-li změnit mapu, kliknutím na zelené tlačítko se znaménkem +mapu přiblížíte, kliknutím na zelené tlačítko se znaménkem – mapu oddálíte a kliknutím na zelené šipky přejdete na sousední mapy.


METAR-TAF: